createdAt,value
2023-05-09T00:02:25.547Z,18.22
2023-05-09T00:04:53.399Z,19.07
2023-05-09T00:07:21.192Z,18.70
2023-05-09T00:10:24.745Z,19.22
2023-05-09T00:12:52.614Z,19.60
2023-05-09T00:15:20.328Z,18.76
2023-05-09T00:17:51.422Z,18.57
2023-05-09T00:20:20.102Z,19.52
2023-05-09T00:22:47.788Z,18.98
2023-05-09T00:25:17.122Z,19.17
2023-05-09T00:27:45.016Z,18.88
2023-05-09T00:30:13.004Z,19.49
2023-05-09T00:32:41.533Z,17.93
2023-05-09T00:35:09.979Z,18.86
2023-05-09T00:37:37.808Z,19.21
2023-05-09T00:40:07.510Z,19.43
2023-05-09T00:42:36.720Z,18.78
2023-05-09T00:45:04.705Z,16.86
2023-05-09T00:47:32.375Z,17.11
2023-05-09T00:50:00.085Z,18.33
2023-05-09T00:52:27.896Z,18.86
2023-05-09T00:54:55.808Z,18.28
2023-05-09T00:57:23.433Z,18.77
2023-05-09T00:59:52.553Z,18.54
2023-05-09T01:02:20.283Z,17.87
2023-05-09T01:04:48.042Z,17.67
2023-05-09T01:07:20.136Z,17.19
2023-05-09T01:09:50.867Z,19.27
2023-05-09T01:12:24.396Z,19.28
2023-05-09T01:14:57.128Z,18.13
2023-05-09T01:17:28.260Z,18.97
2023-05-09T01:20:00.691Z,18.49
2023-05-09T01:22:33.244Z,17.40
2023-05-09T01:25:12.978Z,18.27
2023-05-09T01:27:45.480Z,18.15
2023-05-09T01:30:14.692Z,17.84
2023-05-09T01:32:43.234Z,18.53
2023-05-09T01:35:12.476Z,18.64
2023-05-09T01:37:43.099Z,19.16
2023-05-09T01:40:14.113Z,18.51
2023-05-09T01:42:43.605Z,17.47
2023-05-09T01:45:12.400Z,17.74
2023-05-09T01:47:41.734Z,18.94
2023-05-09T01:50:10.680Z,18.06
2023-05-09T01:52:38.669Z,17.67
2023-05-09T01:55:07.522Z,19.28
2023-05-09T01:57:35.531Z,18.43
2023-05-09T02:00:03.397Z,18.28
2023-05-09T02:02:31.100Z,17.94
2023-05-09T02:05:00.281Z,18.04
2023-05-09T02:07:27.948Z,18.32
2023-05-09T02:09:56.439Z,17.94
2023-05-09T02:12:24.384Z,17.98
2023-05-09T02:14:52.254Z,18.42
2023-05-09T02:17:21.663Z,18.43
2023-05-09T02:19:49.458Z,17.80
2023-05-09T02:22:18.580Z,17.69
2023-05-09T02:24:46.258Z,18.08
2023-05-09T02:27:13.996Z,18.94
2023-05-09T02:29:44.301Z,19.41
2023-05-09T02:32:13.680Z,17.77
2023-05-09T02:34:41.947Z,18.57
2023-05-09T02:37:09.685Z,19.10
2023-05-09T02:39:38.750Z,17.80
2023-05-09T02:42:08.021Z,18.18
2023-05-09T02:44:36.181Z,19.48
2023-05-09T02:47:03.972Z,18.60
2023-05-09T02:49:32.758Z,18.27
2023-05-09T02:52:01.403Z,19.54
2023-05-09T02:54:29.413Z,18.74
2023-05-09T02:56:59.198Z,17.17
2023-05-09T02:59:27.002Z,18.96
2023-05-09T03:01:54.844Z,19.59
2023-05-09T03:04:22.994Z,18.99
2023-05-09T03:06:50.668Z,18.37
2023-05-09T03:09:18.384Z,18.71
2023-05-09T03:11:46.142Z,17.81
2023-05-09T03:14:15.536Z,18.15
2023-05-09T03:16:43.312Z,19.11
2023-05-09T03:19:11.056Z,19.75
2023-05-09T03:21:40.491Z,17.21
2023-05-09T03:24:08.534Z,19.61
2023-05-09T03:26:36.635Z,19.84
2023-05-09T03:29:04.405Z,19.36
2023-05-09T03:31:33.737Z,19.25
2023-05-09T03:34:01.772Z,19.18
2023-05-09T03:36:29.747Z,18.06
2023-05-09T03:38:58.638Z,18.16
2023-05-09T03:41:26.365Z,17.65
2023-05-09T03:43:54.058Z,19.28
2023-05-09T03:46:21.830Z,19.87
2023-05-09T03:48:50.984Z,18.18
2023-05-09T03:51:18.859Z,19.67
2023-05-09T03:53:47.160Z,19.39
2023-05-09T03:56:14.903Z,19.41
2023-05-09T03:58:42.671Z,19.03
2023-05-09T04:01:10.758Z,19.44
2023-05-09T04:03:38.735Z,19.34
2023-05-09T04:06:08.412Z,19.41
2023-05-09T04:08:36.101Z,18.54
2023-05-09T04:11:03.798Z,19.19
2023-05-09T04:13:32.965Z,18.48
2023-05-09T04:16:01.513Z,19.46
2023-05-09T04:18:29.249Z,19.40
2023-05-09T04:20:56.962Z,18.86
2023-05-09T04:23:26.032Z,18.09
2023-05-09T04:25:54.342Z,19.41
2023-05-09T04:28:22.327Z,19.28
2023-05-09T04:30:50.128Z,18.82
2023-05-09T04:33:25.372Z,17.90
2023-05-09T04:35:55.696Z,19.33
2023-05-09T04:38:33.337Z,18.68
2023-05-09T04:41:25.870Z,18.14
2023-05-09T04:43:56.431Z,18.42
2023-05-09T04:46:46.330Z,18.49
2023-05-09T04:49:18.577Z,19.34
2023-05-09T04:51:51.877Z,17.90
2023-05-09T04:54:19.688Z,19.69
2023-05-09T04:56:50.608Z,19.09
2023-05-09T04:59:18.487Z,19.62
2023-05-09T05:01:46.351Z,17.83
2023-05-09T05:04:14.296Z,20.17
2023-05-09T05:06:53.671Z,19.27
2023-05-09T05:09:21.743Z,19.01
2023-05-09T05:12:00.000Z,19.59
2023-05-09T05:14:29.834Z,18.56
2023-05-09T05:16:57.763Z,19.10
2023-05-09T05:19:25.808Z,19.55
2023-05-09T05:21:53.699Z,19.32
2023-05-09T05:24:21.829Z,19.93
2023-05-09T05:26:51.178Z,20.52
2023-05-09T05:29:19.086Z,18.22
2023-05-09T05:31:46.913Z,20.63
2023-05-09T05:34:16.323Z,18.93
2023-05-09T05:36:44.349Z,19.95
2023-05-09T05:39:13.475Z,19.61
2023-05-09T05:41:41.245Z,20.93
2023-05-09T05:44:10.338Z,21.03
2023-05-09T05:46:38.012Z,20.18
2023-05-09T05:49:05.837Z,21.29
2023-05-09T05:51:33.670Z,21.26
2023-05-09T05:54:01.259Z,21.37
2023-05-09T05:56:28.943Z,20.93
2023-05-09T05:58:56.610Z,21.09
2023-05-09T06:01:25.736Z,21.42
2023-05-09T06:03:54.938Z,21.40
2023-05-09T06:06:22.794Z,21.40
2023-05-09T06:08:50.947Z,21.46
2023-05-09T06:11:18.757Z,21.09
2023-05-09T06:13:46.792Z,21.23
2023-05-09T06:16:19.212Z,21.51
2023-05-09T06:18:48.938Z,21.60
2023-05-09T06:21:16.552Z,21.70
2023-05-09T06:23:57.829Z,21.74
2023-05-09T06:26:31.969Z,21.91
2023-05-09T06:28:59.824Z,21.99
2023-05-09T06:31:27.750Z,21.55
2023-05-09T06:34:02.679Z,22.09
2023-05-09T06:36:30.920Z,21.12
2023-05-09T06:38:58.779Z,21.99
2023-05-09T06:41:26.672Z,21.95
2023-05-09T06:43:54.420Z,21.70
2023-05-09T06:46:22.347Z,21.11
2023-05-09T06:48:50.682Z,21.38
2023-05-09T06:51:20.696Z,21.99
2023-05-09T06:53:48.438Z,22.11
2023-05-09T06:56:17.386Z,21.60
2023-05-09T06:58:46.325Z,22.35
2023-05-09T07:01:14.145Z,22.57
2023-05-09T07:03:41.794Z,22.80
2023-05-09T07:06:09.670Z,22.38
2023-05-09T07:08:38.977Z,23.17
2023-05-09T07:11:06.629Z,23.48
2023-05-09T07:13:34.385Z,23.62
2023-05-09T07:16:02.084Z,23.52
2023-05-09T07:18:29.916Z,23.71
2023-05-09T07:20:57.582Z,23.99
2023-05-09T07:23:26.970Z,24.05
2023-05-09T07:25:58.925Z,24.21
2023-05-09T07:28:26.843Z,23.99
2023-05-09T07:30:56.322Z,24.77
2023-05-09T07:33:24.357Z,24.70
2023-05-09T07:35:53.195Z,25.57
2023-05-09T07:38:22.522Z,25.31
2023-05-09T07:40:50.309Z,25.87
2023-05-09T07:43:19.251Z,26.11
2023-05-09T07:45:47.333Z,26.15
2023-05-09T07:48:15.585Z,25.54
2023-05-09T07:50:58.287Z,25.52
2023-05-09T07:53:26.385Z,25.83
2023-05-09T07:55:54.074Z,25.68
2023-05-09T07:58:23.511Z,25.12
2023-05-09T08:00:51.528Z,25.46
2023-05-09T08:03:25.326Z,24.31
2023-05-09T08:08:36.270Z,25.28
2023-05-09T08:11:06.286Z,25.25
2023-05-09T08:13:35.431Z,23.68
2023-05-09T08:16:03.168Z,25.58
2023-05-09T08:18:38.996Z,26.08
2023-05-09T08:21:06.726Z,26.44
2023-05-09T08:23:34.457Z,26.00
2023-05-09T08:26:02.322Z,25.64
2023-05-09T08:28:32.550Z,26.02
2023-05-09T08:31:01.678Z,25.25
2023-05-09T08:33:29.601Z,25.86
2023-05-09T08:35:57.993Z,27.64
2023-05-09T08:38:26.039Z,28.18
2023-05-09T08:40:59.389Z,28.77
2023-05-09T08:43:26.982Z,29.05
2023-05-09T08:45:57.428Z,28.53
2023-05-09T08:48:26.805Z,28.67
2023-05-09T08:50:54.530Z,28.47
2023-05-09T08:53:26.270Z,28.39
2023-05-09T09:05:10.107Z,31.15
2023-05-09T09:07:44.384Z,31.98
2023-05-09T09:10:12.578Z,32.77
2023-05-09T09:12:40.933Z,33.10
2023-05-09T09:15:11.755Z,34.07
2023-05-09T09:17:40.349Z,34.25
2023-05-09T09:20:11.433Z,34.39
2023-05-09T09:22:39.503Z,34.40
2023-05-09T09:25:07.634Z,34.48
2023-05-09T09:27:38.400Z,33.54
2023-05-09T09:30:11.686Z,34.24
2023-05-09T09:32:42.329Z,33.63
2023-05-09T09:35:20.299Z,35.15
2023-05-09T09:37:48.546Z,34.81
2023-05-09T09:40:18.042Z,34.62
2023-05-09T09:42:47.053Z,34.74
2023-05-09T09:45:16.708Z,33.81
2023-05-09T09:47:52.027Z,34.72
2023-05-09T09:50:23.160Z,35.70
2023-05-09T09:52:51.662Z,36.06
2023-05-09T09:55:19.546Z,36.55
2023-05-09T09:57:48.568Z,35.92
2023-05-09T10:00:17.646Z,36.21
2023-05-09T10:02:49.661Z,35.53
2023-05-09T10:05:22.477Z,35.31
2023-05-09T10:07:55.514Z,35.51
2023-05-09T10:10:24.569Z,35.28
2023-05-09T10:13:22.680Z,34.78
2023-05-09T10:16:10.462Z,33.57
2023-05-09T10:19:01.373Z,35.26
2023-05-09T10:21:39.728Z,32.30
2023-05-09T10:24:07.771Z,33.87
2023-05-09T10:27:16.397Z,30.81
2023-05-09T10:29:52.707Z,30.69
2023-05-09T10:32:23.941Z,32.03
2023-05-09T10:34:53.966Z,30.36
2023-05-09T10:37:33.405Z,31.18
2023-05-09T10:40:10.087Z,31.53
2023-05-09T10:42:38.442Z,32.47
2023-05-09T10:45:09.450Z,32.16
2023-05-09T10:47:37.487Z,31.17
2023-05-09T10:50:09.986Z,30.98
2023-05-09T10:53:17.847Z,30.82
2023-05-09T10:58:26.234Z,28.59
2023-05-09T11:00:55.373Z,29.42
2023-05-09T11:03:25.822Z,29.48
2023-05-09T11:05:54.744Z,29.31
2023-05-09T11:08:25.406Z,29.70
2023-05-09T11:10:53.342Z,30.46
2023-05-09T11:13:23.351Z,30.61
2023-05-09T11:16:10.681Z,30.49
2023-05-09T11:18:51.542Z,29.97
2023-05-09T11:21:21.331Z,29.39
2023-05-09T11:23:52.958Z,29.10
2023-05-09T11:26:23.435Z,28.36
2023-05-09T11:28:56.868Z,28.65
2023-05-09T11:31:24.699Z,27.94
2023-05-09T11:33:58.536Z,28.33
2023-05-09T11:38:41.282Z,29.33
2023-05-09T11:40:33.306Z,28.78
2023-05-09T11:43:01.253Z,29.81
2023-05-09T11:45:29.828Z,29.64
2023-05-09T11:47:58.341Z,29.74
2023-05-09T11:50:26.106Z,29.45
2023-05-09T11:52:54.338Z,29.44
2023-05-09T11:55:25.105Z,29.16
2023-05-09T11:57:54.923Z,29.42
2023-05-09T12:00:23.579Z,29.62
2023-05-09T12:02:51.736Z,29.77
2023-05-09T12:05:19.977Z,29.74
2023-05-09T12:07:47.727Z,29.60
2023-05-09T12:10:16.751Z,29.74
2023-05-09T12:12:47.079Z,29.89
2023-05-09T12:15:15.319Z,29.91
2023-05-09T12:17:43.594Z,29.88
2023-05-09T12:20:11.684Z,30.17
2023-05-09T12:22:39.527Z,30.37
2023-05-09T12:25:08.547Z,30.30
2023-05-09T12:27:41.177Z,30.00
2023-05-09T12:30:11.993Z,30.38
2023-05-09T12:32:40.361Z,29.29
2023-05-09T12:35:09.525Z,29.93
2023-05-09T12:40:22.426Z,29.56
2023-05-09T12:43:00.828Z,27.53
2023-05-09T12:46:20.422Z,27.29
2023-05-09T12:48:50.780Z,28.76
2023-05-09T12:59:48.531Z,27.30
2023-05-09T13:02:16.583Z,28.37
2023-05-09T13:09:14.188Z,29.93
2023-05-09T13:18:21.762Z,29.76
2023-05-09T13:20:53.050Z,29.70
2023-05-09T13:27:00.694Z,28.36
2023-05-09T13:29:30.081Z,29.32
2023-05-09T13:31:58.556Z,29.19
2023-05-09T13:34:26.286Z,29.13
2023-05-09T13:36:54.192Z,29.01
2023-05-09T13:39:22.319Z,28.62
2023-05-09T13:41:52.892Z,28.23
2023-05-09T13:44:21.452Z,28.04
2023-05-09T13:46:51.087Z,28.71
2023-05-09T13:49:19.745Z,28.03
2023-05-09T13:51:47.819Z,27.44
2023-05-09T13:54:18.629Z,26.83
2023-05-09T13:56:46.509Z,28.17
2023-05-09T13:59:14.895Z,27.07
2023-05-09T14:01:42.834Z,27.02
2023-05-09T14:04:15.167Z,28.32
2023-05-09T14:06:48.131Z,26.89
2023-05-09T14:09:16.820Z,27.21
2023-05-09T14:11:58.957Z,27.72
2023-05-09T14:14:26.874Z,28.27
2023-05-09T14:16:54.814Z,27.88
2023-05-09T14:19:23.915Z,28.14
2023-05-09T14:21:51.935Z,28.09
2023-05-09T14:24:31.057Z,26.59
2023-05-09T14:26:59.317Z,27.03
2023-05-09T14:29:32.503Z,25.73
2023-05-09T14:32:00.481Z,28.07
2023-05-09T14:34:29.665Z,26.63
2023-05-09T14:36:57.761Z,27.53
2023-05-09T14:39:31.703Z,26.17
2023-05-09T14:42:02.642Z,27.47
2023-05-09T14:44:31.101Z,27.48
2023-05-09T14:47:16.735Z,27.82
2023-05-09T14:49:46.267Z,25.99
2023-05-09T14:52:15.327Z,26.67
2023-05-09T14:54:47.619Z,24.83
2023-05-09T14:57:16.187Z,26.14
2023-05-09T15:03:08.745Z,25.78
2023-05-09T15:09:04.501Z,23.81
2023-05-09T15:11:39.902Z,25.09
2023-05-09T15:18:18.389Z,23.95
2023-05-09T15:21:00.211Z,24.40
2023-05-09T15:24:12.040Z,24.35
2023-05-09T15:30:20.116Z,23.97
2023-05-09T15:34:40.409Z,22.84
2023-05-09T16:00:02.287Z,23.42
2023-05-09T16:08:54.671Z,23.24
2023-05-09T16:11:22.719Z,22.81
2023-05-09T16:13:51.595Z,22.39
2023-05-09T16:53:00.046Z,20.31
2023-05-09T16:59:38.985Z,22.19
2023-05-09T18:03:17.760Z,21.10
2023-05-09T18:05:45.787Z,21.95
2023-05-09T18:08:14.138Z,22.66
2023-05-09T18:10:42.271Z,21.14
2023-05-09T18:13:37.618Z,22.58
2023-05-09T18:16:06.169Z,21.68
2023-05-09T18:18:37.716Z,21.36
2023-05-09T18:21:08.131Z,21.84
2023-05-09T18:23:36.706Z,21.32
2023-05-09T18:26:04.966Z,22.31
2023-05-09T18:28:39.277Z,20.89
2023-05-09T18:31:09.600Z,22.14
2023-05-09T18:33:39.131Z,21.72
2023-05-09T18:36:10.444Z,20.80
2023-05-09T18:38:39.424Z,20.29
2023-05-09T18:41:07.939Z,21.81
2023-05-09T18:43:37.621Z,20.03
2023-05-09T18:46:10.890Z,20.03
2023-05-09T18:48:40.866Z,20.77
2023-05-09T18:51:09.024Z,21.07
2023-05-09T18:53:38.421Z,20.13
2023-05-09T18:56:06.447Z,20.36
2023-05-09T18:58:34.780Z,21.27
2023-05-09T19:01:02.892Z,21.48
2023-05-09T19:03:31.071Z,21.57
2023-05-09T19:06:01.948Z,20.31
2023-05-09T19:08:30.881Z,20.34
2023-05-09T19:11:00.204Z,19.52
2023-05-09T19:13:28.668Z,20.79
2023-05-09T19:15:56.856Z,20.15
2023-05-09T19:18:24.735Z,20.09
2023-05-09T19:20:52.957Z,20.75
2023-05-09T19:23:22.820Z,20.70
2023-05-09T19:25:52.173Z,20.66
2023-05-09T19:28:20.336Z,20.54
2023-05-09T19:30:48.823Z,19.63
2023-05-09T19:33:16.713Z,19.54
2023-05-09T19:35:44.978Z,19.37
2023-05-09T19:38:12.912Z,20.94
2023-05-09T19:40:42.248Z,18.66
2023-05-09T19:43:10.111Z,19.37
2023-05-09T19:45:38.145Z,18.68
2023-05-09T19:48:06.563Z,21.14
2023-05-09T19:50:34.511Z,20.29
2023-05-09T19:53:03.204Z,20.49
2023-05-09T19:55:31.652Z,19.49
2023-05-09T19:58:01.408Z,20.08
2023-05-09T20:00:29.245Z,20.30
2023-05-09T20:02:57.416Z,20.84
2023-05-09T20:05:26.250Z,19.49
2023-05-09T20:07:55.629Z,18.24
2023-05-09T20:10:23.896Z,20.04
2023-05-09T20:12:53.124Z,20.82
2023-05-09T20:15:22.538Z,19.41
2023-05-09T20:17:50.779Z,20.23
2023-05-09T20:20:18.755Z,19.36
2023-05-09T20:22:46.722Z,18.97
2023-05-09T20:25:15.415Z,19.68
2023-05-09T20:27:43.449Z,20.76
2023-05-09T20:30:12.820Z,20.71
2023-05-09T20:32:43.126Z,19.90
2023-05-09T20:35:11.352Z,19.73
2023-05-09T20:37:39.580Z,19.74
2023-05-09T20:40:09.233Z,18.55
2023-05-09T20:42:37.475Z,18.73
2023-05-09T20:45:06.054Z,20.44
2023-05-09T20:47:33.967Z,20.39
2023-05-09T20:50:03.367Z,20.35
2023-05-09T20:52:35.067Z,18.80
2023-05-09T20:55:03.068Z,19.65
2023-05-09T20:57:30.790Z,20.22
2023-05-09T20:59:58.554Z,20.18
2023-05-09T21:02:37.899Z,19.44
2023-05-09T21:05:08.140Z,19.09
2023-05-09T21:07:38.850Z,19.27
2023-05-09T21:10:07.616Z,17.40
2023-05-09T21:12:35.404Z,20.05
2023-05-09T21:15:03.685Z,19.14
2023-05-09T21:17:31.471Z,19.38
2023-05-09T21:19:59.393Z,19.64
2023-05-09T21:22:28.601Z,17.57
2023-05-09T21:24:56.360Z,19.27
2023-05-09T21:27:24.232Z,19.93
2023-05-09T21:29:51.873Z,18.76
2023-05-09T21:32:19.826Z,18.85
2023-05-09T21:34:48.585Z,18.24
2023-05-09T21:37:16.426Z,18.87
2023-05-09T21:39:46.170Z,19.21
2023-05-09T21:42:13.940Z,17.88
2023-05-09T21:44:41.673Z,17.59
2023-05-09T21:47:10.214Z,17.13
2023-05-09T21:49:38.093Z,19.22
2023-05-09T21:52:06.306Z,17.79
2023-05-09T21:54:34.098Z,19.82
2023-05-09T21:57:03.339Z,18.01
2023-05-09T21:59:31.029Z,18.92
2023-05-09T22:01:58.780Z,19.38
2023-05-09T22:04:26.631Z,19.07
2023-05-09T22:06:54.480Z,17.60
2023-05-09T22:09:23.444Z,18.63
2023-05-09T22:11:51.780Z,18.86
2023-05-09T22:14:21.027Z,17.80
2023-05-09T22:16:49.820Z,19.62
2023-05-09T22:19:17.536Z,18.04
2023-05-09T22:21:45.338Z,17.67
2023-05-09T22:24:13.623Z,18.95
2023-05-09T22:26:43.226Z,19.32
2023-05-09T22:29:10.960Z,17.97
2023-05-09T22:31:40.118Z,18.24
2023-05-09T22:34:07.857Z,19.61
2023-05-09T22:36:35.648Z,18.30
2023-05-09T22:39:03.416Z,18.44
2023-05-09T22:41:31.110Z,16.82
2023-05-09T22:43:58.807Z,18.14
2023-05-09T22:46:26.813Z,19.18
2023-05-09T22:48:56.049Z,17.46
2023-05-09T22:51:23.976Z,17.52
2023-05-09T22:53:51.692Z,18.42
2023-05-09T22:56:19.556Z,19.45
2023-05-09T22:58:47.464Z,17.13
2023-05-09T23:01:15.312Z,18.58
2023-05-09T23:03:43.930Z,19.45
2023-05-09T23:06:13.082Z,17.75
2023-05-09T23:08:40.775Z,18.83
2023-05-09T23:11:08.600Z,19.22
2023-05-09T23:13:36.529Z,18.20
2023-05-09T23:16:04.340Z,19.08
2023-05-09T23:18:32.405Z,18.82
2023-05-09T23:21:00.362Z,19.16
2023-05-09T23:23:29.720Z,16.83
2023-05-09T23:25:57.689Z,18.09
2023-05-09T23:28:25.992Z,17.83
2023-05-09T23:30:54.519Z,17.67
2023-05-09T23:33:22.427Z,18.48
2023-05-09T23:35:52.364Z,18.74
2023-05-09T23:38:20.321Z,18.42
2023-05-09T23:40:49.563Z,19.32
2023-05-09T23:43:20.404Z,18.44
2023-05-09T23:45:48.233Z,17.79
2023-05-09T23:48:16.032Z,19.34
2023-05-09T23:50:44.755Z,19.35
2023-05-09T23:53:12.484Z,16.99
2023-05-09T23:55:43.011Z,16.95
2023-05-09T23:58:12.144Z,16.85
